Time;durP1;ratioP1;P1;durP2;ratioP2;P2;SDS_P1;SDS_P2;PMS_P1;PMS_P2;Temp;Humidity;BMP_temperature;BMP_pressure;BME280_temperature;BME280_humidity;BME280_pressure;Samples;Min_cycle;Max_cycle;Signal;HPM_P1;HPM_P2
2022/09/26 00:01:17;;;;;;;3.22;3.02;;;;;;;14.59;81.48;98562.27;1747011;82;20926;-68
2022/09/26 00:03:46;;;;;;;3.25;2.95;;;;;;;14.58;81.58;98561.45;1733773;80;21437;-66
2022/09/26 00:06:12;;;;;;;2.75;2.58;;;;;;;14.59;81.63;98560.42;1740327;80;21164;-67
2022/09/26 00:08:39;;;;;;;2.60;2.50;;;;;;;14.58;81.55;98560.11;1743462;82;20980;-67
2022/09/26 00:11:08;;;;;;;2.98;2.77;;;;;;;14.58;81.57;98557.95;1744200;80;21459;-67
2022/09/26 00:13:37;;;;;;;3.08;2.87;;;;;;;14.59;81.64;98556.92;1739259;80;20948;-67
2022/09/26 00:16:05;;;;;;;2.80;2.60;;;;;;;14.59;81.61;98552.91;1745778;81;20938;-67
2022/09/26 00:18:32;;;;;;;3.20;3.00;;;;;;;14.58;81.63;98549.41;1747621;80;22052;-67
2022/09/26 00:21:09;;;;;;;3.12;2.92;;;;;;;14.60;81.70;98549.20;1747407;82;20990;-67
2022/09/26 00:23:37;;;;;;;3.47;2.65;;;;;;;14.60;81.65;98547.87;1737014;82;21500;-67
2022/09/26 00:26:04;;;;;;;3.15;2.90;;;;;;;14.61;81.72;98551.65;1747377;82;20949;-68
2022/09/26 00:28:30;;;;;;;2.92;2.60;;;;;;;14.61;81.72;98549.48;1743929;82;20887;-67
2022/09/26 00:31:02;;;;;;;2.87;2.67;;;;;;;14.63;81.70;98550.91;1747201;80;21243;-67
2022/09/26 00:33:29;;;;;;;3.00;2.80;;;;;;;14.63;81.61;98554.92;1741558;82;21459;-67
2022/09/26 00:35:56;;;;;;;3.40;3.10;;;;;;;14.62;81.63;98554.64;1747374;80;21047;-67
2022/09/26 00:38:22;;;;;;;2.98;2.77;;;;;;;14.62;81.70;98557.31;1740022;80;20991;-67
2022/09/26 00:40:49;;;;;;;3.00;2.50;;;;;;;14.62;81.70;98547.13;1741365;82;20969;-67
2022/09/26 00:43:30;;;;;;;3.02;2.83;;;;;;;14.61;81.73;98546.30;1747197;80;21146;-67
2022/09/26 00:46:14;;;;;;;2.90;2.70;;;;;;;14.62;81.71;98548.45;1744799;81;20911;-67
2022/09/26 00:48:42;;;;;;;2.75;2.50;;;;;;;14.60;81.70;98542.52;1747514;80;21515;-67
2022/09/26 00:51:09;;;;;;;3.05;2.85;;;;;;;14.58;81.73;98544.56;1747592;82;20982;-67
2022/09/26 00:53:41;;;;;;;2.95;2.72;;;;;;;14.56;81.75;98544.80;1743158;80;20999;-67
2022/09/26 00:56:14;;;;;;;3.37;3.12;;;;;;;14.56;81.77;98545.30;1747083;80;21233;-67
2022/09/26 00:58:45;;;;;;;2.60;2.40;;;;;;;14.55;81.83;98539.13;1740548;80;20907;-67
2022/09/26 01:01:13;;;;;;;2.80;2.55;;;;;;;14.54;81.80;98542.86;1747445;80;21424;-67
2022/09/26 01:03:41;;;;;;;2.65;2.45;;;;;;;14.53;81.82;98542.55;1744669;80;20931;-67
2022/09/26 01:06:08;;;;;;;2.77;2.52;;;;;;;14.53;81.89;98545.73;1747314;80;20951;-67
2022/09/26 01:08:39;;;;;;;2.47;2.37;;;;;;;14.51;81.96;98548.64;1747547;81;21248;-67
2022/09/26 01:11:08;;;;;;;2.62;2.42;;;;;;;14.51;82.03;98544.63;1747468;81;20926;-67
2022/09/26 01:13:35;;;;;;;2.92;2.72;;;;;;;14.52;82.11;98532.08;1747497;82;20930;-68
2022/09/26 01:16:02;;;;;;;2.87;2.67;;;;;;;14.52;82.08;98534.20;1748368;80;21470;-67
2022/09/26 01:18:29;;;;;;;2.62;2.42;;;;;;;14.52;82.03;98528.85;1742540;80;21543;-68
2022/09/26 01:21:19;;;;;;;2.90;2.70;;;;;;;14.51;82.09;98523.22;1712158;82;21255;-68
2022/09/26 01:23:55;;;;;;;2.72;2.52;;;;;;;14.50;82.06;98524.25;1747740;82;21029;-67
2022/09/26 01:26:51;;;;;;;3.00;2.77;;;;;;;14.48;82.12;98524.16;1672639;80;21571;-66
2022/09/26 01:29:49;;;;;;;3.83;2.80;;;;;;;14.45;82.07;98521.41;1747275;82;20906;-68
2022/09/26 01:33:09;;;;;;;3.05;2.85;;;;;;;14.44;82.14;98518.45;1746901;80;21515;-67
2022/09/26 01:36:28;;;;;;;2.87;2.67;;;;;;;14.42;82.14;98518.34;1742779;82;21158;-67
2022/09/26 01:39:34;;;;;;;2.87;2.67;;;;;;;14.39;82.22;98519.59;1738096;80;20947;-67
2022/09/26 01:42:18;;;;;;;2.80;2.60;;;;;;;14.35;82.31;98515.72;1729439;82;20918;-68
2022/09/26 01:45:00;;;;;;;3.12;2.83;;;;;;;14.30;82.46;98504.83;1749551;81;20979;-68
2022/09/26 01:47:47;;;;;;;2.92;2.72;;;;;;;14.30;82.47;98507.50;1712304;82;21054;-68
2022/09/26 01:50:45;;;;;;;2.85;2.65;;;;;;;14.31;82.50;98509.19;1701716;84;21970;-67
2022/09/26 01:53:16;;;;;;;2.75;2.55;;;;;;;14.30;82.51;98511.52;1742394;82;20964;-67
2022/09/26 01:55:52;;;;;;;2.95;2.65;;;;;;;14.29;82.54;98512.53;1745040;80;21016;-67
2022/09/26 01:58:35;;;;;;;3.02;2.83;;;;;;;14.30;82.59;98514.19;1742793;82;21511;-67
2022/09/26 02:01:07;;;;;;;2.60;2.40;;;;;;;14.30;82.64;98516.86;1747143;82;20947;-67
2022/09/26 02:03:36;;;;;;;2.98;2.77;;;;;;;14.32;82.72;98511.31;1692859;83;21152;-67
2022/09/26 02:06:11;;;;;;;2.92;2.72;;;;;;;14.33;82.65;98505.77;1746441;81;20887;-67
2022/09/26 02:08:51;;;;;;;2.98;2.70;;;;;;;14.32;82.62;98505.97;1707238;82;20939;-67
2022/09/26 02:11:20;;;;;;;2.77;2.52;;;;;;;14.32;82.61;98505.97;1677074;84;21052;-67
2022/09/26 02:14:10;;;;;;;2.77;2.58;;;;;;;14.31;82.64;98504.31;1685177;83;20942;-67
2022/09/26 02:16:43;;;;;;;3.30;2.22;;;;;;;14.31;82.67;98503.83;1675623;85;21186;-68
2022/09/26 02:19:19;;;;;;;2.50;2.30;;;;;;;14.30;82.71;98498.14;1670301;85;21526;-68
2022/09/26 02:21:45;;;;;;;;;;;;;;;14.31;82.75;98493.61;1661255;86;20956;-67
2022/09/26 02:24:12;;;;;;;3.83;2.58;;;;;;;14.29;82.79;98497.82;1665964;86;20125;-68
2022/09/26 02:26:41;;;;;;;3.05;2.85;;;;;;;14.30;82.77;98494.13;1661774;85;20995;-67
2022/09/26 02:29:08;;;;;;;2.60;2.40;;;;;;;14.29;82.82;98498.37;1661590;86;21111;-67
2022/09/26 02:31:38;;;;;;;2.75;2.52;;;;;;;14.29;82.85;98500.50;1641946;86;20905;-68
2022/09/26 02:34:05;;;;;;;3.40;2.60;;;;;;;14.29;82.81;98509.86;1643074;86;20908;-68
2022/09/26 02:36:33;;;;;;;3.05;2.65;;;;;;;14.29;82.77;98509.86;1659046;86;20956;-68
2022/09/26 02:39:02;;;;;;;2.70;2.50;;;;;;;14.29;82.81;98511.74;1661328;85;21462;-68
2022/09/26 02:42:03;;;;;;;2.70;2.50;;;;;;;14.30;82.85;98514.19;1661698;86;21222;-68
2022/09/26 02:44:41;;;;;;;2.70;2.50;;;;;;;14.29;82.86;98511.20;1663883;85;20952;-67
2022/09/26 02:47:48;;;;;;;2.92;2.72;;;;;;;14.28;82.85;98512.77;1661771;86;21020;-68
2022/09/26 02:50:47;;;;;;;3.10;2.80;;;;;;;14.24;82.87;98515.88;1651265;86;21477;-68
2022/09/26 02:53:49;;;;;;;2.92;2.72;;;;;;;14.22;82.91;98511.27;1609638;86;20960;-68
2022/09/26 02:56:54;;;;;;;2.87;2.67;;;;;;;14.20;83.00;98500.48;1652358;86;21863;-68
2022/09/26 02:59:39;;;;;;;2.47;2.27;;;;;;;14.19;83.05;98498.83;1650525;86;20915;-68
2022/09/26 03:02:14;;;;;;;2.40;2.30;;;;;;;14.17;83.10;98499.57;1663698;86;21445;-68
2022/09/26 03:05:02;;;;;;;2.90;2.70;;;;;;;14.17;83.12;98498.23;1646268;86;20995;-69
2022/09/26 03:07:45;;;;;;;3.22;2.42;;;;;;;14.18;83.20;98494.53;1661255;85;20971;-68
2022/09/26 03:10:12;;;;;;;2.60;2.40;;;;;;;14.20;83.19;98499.14;1701965;83;21235;-67
2022/09/26 03:12:43;;;;;;;2.50;2.30;;;;;;;14.21;83.22;98498.09;1718144;81;20920;-68
2022/09/26 03:15:11;;;;;;;2.60;2.40;;;;;;;14.22;83.22;98499.73;1703046;83;21482;-68
2022/09/26 03:17:42;;;;;;;2.72;2.52;;;;;;;14.24;83.24;98497.66;1714830;82;20968;-68
2022/09/26 03:20:14;;;;;;;3.60;2.95;;;;;;;14.25;83.18;98493.96;1699048;83;21002;-68
2022/09/26 03:22:42;;;;;;;2.17;2.08;;;;;;;14.24;83.10;98487.78;1732907;81;21766;-68
2022/09/26 03:25:12;;;;;;;2.90;2.70;;;;;;;14.23;83.11;98483.45;1691121;83;20943;-67
2022/09/26 03:27:42;;;;;;;2.70;2.33;;;;;;;14.25;83.12;98487.27;1698634;83;20957;-67
2022/09/26 03:30:11;;;;;;;2.75;2.47;;;;;;;14.24;83.14;98476.26;1715615;83;21011;-67
2022/09/26 03:32:39;;;;;;;2.42;2.22;;;;;;;14.27;83.19;98482.52;1715883;83;21547;-67
2022/09/26 03:35:07;;;;;;;2.90;2.70;;;;;;;14.27;83.19;98480.35;1716884;83;21253;-68
2022/09/26 03:37:36;;;;;;;3.17;2.83;;;;;;;14.28;83.12;98478.81;1714899;83;21489;-67
2022/09/26 03:40:05;;;;;;;2.77;2.58;;;;;;;14.27;83.06;98477.67;1714837;81;21090;-67
2022/09/26 03:42:34;;;;;;;2.72;2.52;;;;;;;14.26;83.07;98476.85;1718387;82;21015;-67
2022/09/26 03:45:05;;;;;;;2.58;2.37;;;;;;;14.26;83.06;98475.52;1690836;83;21422;-67
2022/09/26 03:47:46;;;;;;;2.77;2.58;;;;;;;14.23;83.06;98470.63;1696556;83;21525;-67
2022/09/26 03:50:14;;;;;;;2.35;2.25;;;;;;;14.22;83.09;98467.13;1699798;83;21024;-67
2022/09/26 03:52:41;;;;;;;3.00;2.42;;;;;;;14.20;83.13;98465.70;1721893;83;20867;-68
2022/09/26 03:55:08;;;;;;;2.42;2.22;;;;;;;14.20;83.21;98468.38;1722283;83;20931;-67
2022/09/26 03:57:35;;;;;;;2.55;2.45;;;;;;;14.19;83.32;98468.06;1720713;82;21002;-68
2022/09/26 04:00:06;;;;;;;2.60;2.47;;;;;;;14.23;83.36;98463.39;1720343;82;21160;-67
2022/09/26 04:02:36;;;;;;;3.12;2.83;;;;;;;14.24;83.36;98459.70;1709735;83;21537;-69
2022/09/26 04:05:05;;;;;;;2.70;2.50;;;;;;;14.27;83.26;98456.28;1697612;84;20914;-66
2022/09/26 04:07:32;;;;;;;2.45;2.35;;;;;;;14.27;83.28;98454.42;1696301;83;21469;-66
2022/09/26 04:09:59;;;;;;;2.85;2.65;;;;;;;14.27;83.20;98449.08;1669667;84;21009;-67
2022/09/26 04:12:26;;;;;;;3.00;2.77;;;;;;;14.23;83.19;98453.23;1688898;82;21260;-67
2022/09/26 04:14:54;;;;;;;3.20;2.90;;;;;;;14.20;83.14;98447.81;1687320;84;21010;-67
2022/09/26 04:17:21;;;;;;;3.02;2.83;;;;;;;14.15;83.26;98452.17;1721564;82;21053;-67
2022/09/26 04:19:48;;;;;;;4.42;2.62;;;;;;;14.14;83.35;98450.01;1689592;83;20938;-68
2022/09/26 04:22:14;;;;;;;2.60;2.45;;;;;;;14.13;83.38;98451.03;1721631;81;20891;-67
2022/09/26 04:24:43;;;;;;;2.75;2.52;;;;;;;14.12;83.45;98440.56;1688977;82;21998;-67
2022/09/26 04:27:10;;;;;;;2.90;2.70;;;;;;;14.12;83.52;98447.25;1688637;82;20990;-67
2022/09/26 04:29:36;;;;;;;3.22;3.02;;;;;;;14.13;83.55;98448.36;1688612;82;21032;-67
2022/09/26 04:32:11;;;;;;;3.00;2.80;;;;;;;14.13;83.60;98448.36;1722786;81;20927;-67
2022/09/26 04:34:56;;;;;;;2.98;2.58;;;;;;;14.13;83.56;98449.69;1721552;81;20982;-67
2022/09/26 04:37:24;;;;;;;2.95;2.75;;;;;;;14.11;83.61;98452.28;1721097;81;21257;-67
2022/09/26 04:39:50;;;;;;;3.05;2.85;;;;;;;14.11;83.68;98452.28;1688272;82;21079;-67
2022/09/26 04:42:17;;;;;;;3.00;2.80;;;;;;;14.11;83.73;98453.11;1688522;82;20981;-67
2022/09/26 04:44:43;;;;;;;3.12;2.92;;;;;;;14.11;83.77;98458.97;1688815;82;20999;-68
2022/09/26 04:47:10;;;;;;;2.90;2.60;;;;;;;14.13;83.80;98463.61;1688713;82;20996;-67
2022/09/26 04:49:50;;;;;;;3.37;3.08;;;;;;;14.15;83.78;98462.87;1699727;82;21167;-68
2022/09/26 04:52:17;;;;;;;3.12;2.83;;;;;;;14.17;83.73;98456.27;1688773;82;20914;-67
2022/09/26 04:54:44;;;;;;;3.20;2.90;;;;;;;14.18;83.65;98457.88;1688943;82;21008;-67
2022/09/26 04:57:13;;;;;;;3.08;2.83;;;;;;;14.17;83.58;98460.27;1718974;81;21803;-67
2022/09/26 04:59:40;;;;;;;2.77;2.58;;;;;;;14.18;83.56;98461.89;1688828;84;20949;-67
2022/09/26 05:02:07;;;;;;;5.55;2.80;;;;;;;14.19;83.55;98463.55;1708903;82;22422;-67
2022/09/26 05:04:35;;;;;;;3.08;2.77;;;;;;;14.22;83.57;98459.61;1720069;81;21042;-67
2022/09/26 05:07:02;;;;;;;3.02;2.72;;;;;;;14.27;83.50;98465.12;1719847;83;20970;-67
2022/09/26 05:09:30;;;;;;;2.90;2.70;;;;;;;14.30;83.46;98467.88;1686958;81;21070;-68
2022/09/26 05:12:01;;;;;;;2.85;2.65;;;;;;;14.34;83.41;98464.58;1689174;83;20998;-67
2022/09/26 05:14:28;;;;;;;3.15;2.67;;;;;;;14.38;83.29;98468.47;1724000;81;21136;-67
2022/09/26 05:16:55;;;;;;;3.00;2.70;;;;;;;14.41;83.20;98467.22;1725317;81;21015;-67
2022/09/26 05:19:22;;;;;;;2.95;2.75;;;;;;;14.44;83.13;98468.94;1719542;82;21129;-67
2022/09/26 05:21:59;;;;;;;2.65;2.42;;;;;;;14.46;82.98;98463.36;1696188;81;20990;-67
2022/09/26 05:27:10;;;;;;;2.27;2.15;;;;;;;14.49;82.82;98458.91;1721516;82;21156;-68
2022/09/26 05:29:37;;;;;;;2.80;2.60;;;;;;;14.54;82.79;98466.59;1688638;82;20977;-68
2022/09/26 05:32:05;;;;;;;3.50;3.20;;;;;;;14.57;82.72;98466.66;1688116;84;21017;-68
2022/09/26 05:34:34;;;;;;;3.27;2.98;;;;;;;14.60;82.66;98465.69;1722113;81;20966;-68
2022/09/26 05:37:02;;;;;;;2.77;2.58;;;;;;;14.65;82.58;98466.39;1721454;83;20939;-68
2022/09/26 05:42:14;;;;;;;2.72;2.52;;;;;;;14.71;82.31;98464.97;1686359;82;20858;-68
2022/09/26 05:44:42;;;;;;;2.80;2.60;;;;;;;14.75;82.16;98462.69;1722424;81;20945;-67
2022/09/26 05:47:08;;;;;;;3.52;2.70;;;;;;;14.77;82.10;98461.94;1685983;83;20965;-67
2022/09/26 05:49:35;;;;;;;3.00;2.80;;;;;;;14.80;82.04;98456.14;1722188;81;20843;-67
2022/09/26 05:52:03;;;;;;;2.72;2.52;;;;;;;14.83;81.85;98463.19;1718603;81;21404;-67
2022/09/26 05:54:29;;;;;;;3.50;3.20;;;;;;;14.84;81.63;98466.17;1712290;81;21479;-67
2022/09/26 05:56:57;;;;;;;3.37;3.10;;;;;;;14.84;81.41;98467.52;1688953;82;20984;-68
2022/09/26 05:59:37;;;;;;;3.80;3.50;;;;;;;14.86;81.31;98469.16;1685150;84;20993;-67
2022/09/26 06:02:23;;;;;;;4.40;3.90;;;;;;;14.87;81.28;98464.09;1691295;82;21022;-67
2022/09/26 06:04:51;;;;;;;3.83;3.42;;;;;;;14.90;81.32;98465.81;1682191;83;22231;-68
2022/09/26 06:07:22;;;;;;;3.62;3.25;;;;;;;14.93;81.38;98465.89;1646984;85;21073;-66
2022/09/26 06:09:49;;;;;;;4.17;3.45;;;;;;;14.97;81.27;98467.07;1721295;81;21159;-67
2022/09/26 06:12:18;;;;;;;5.33;4.20;;;;;;;15.00;81.25;98462.09;1710101;81;21591;-67
2022/09/26 06:14:46;;;;;;;5.28;3.87;;;;;;;15.04;81.20;98465.98;1686938;85;21584;-67
2022/09/26 06:17:13;;;;;;;4.50;4.10;;;;;;;15.07;81.08;98460.70;1719690;81;21209;-68
2022/09/26 06:19:40;;;;;;;4.37;3.85;;;;;;;15.11;80.91;98464.04;1688360;83;20946;-68
2022/09/26 06:22:07;;;;;;;6.45;4.30;;;;;;;15.11;80.78;98463.22;1718909;82;21045;-68
2022/09/26 06:24:33;;;;;;;5.78;4.22;;;;;;;15.09;80.86;98460.77;1686782;82;20997;-68
2022/09/26 06:27:00;;;;;;;4.40;3.80;;;;;;;15.11;80.88;98457.34;1720244;82;21000;-68
2022/09/26 06:29:28;;;;;;;3.83;3.20;;;;;;;15.14;80.65;98460.92;1688423;85;21214;-68
2022/09/26 06:31:55;;;;;;;3.33;3.05;;;;;;;15.15;80.39;98459.86;1687824;84;20985;-68
2022/09/26 06:34:25;;;;;;;3.70;3.40;;;;;;;15.16;80.22;98451.31;1720137;83;20982;-67
2022/09/26 06:37:02;;;;;;;3.98;3.67;;;;;;;15.16;80.15;98451.31;1709990;83;21033;-68
2022/09/26 06:39:34;;;;;;;7.33;6.62;;;;;;;15.17;80.15;98451.07;1672036;85;21018;-68
2022/09/26 06:41:58;;;;;;;11.35;10.40;;;;;;;15.20;80.25;98453.85;1720005;81;21174;-66
2022/09/26 06:44:29;;;;;;;12.33;11.33;;;;;;;15.25;80.31;98459.36;1708205;82;20990;-72
2022/09/26 06:47:14;;;;;;;12.53;11.53;;;;;;;15.28;80.29;98454.34;1717035;82;21757;-74
2022/09/26 06:49:41;;;;;;;9.73;8.93;;;;;;;15.32;80.31;98452.05;1721383;83;20998;-70
2022/09/26 06:52:10;;;;;;;9.48;8.58;;;;;;;15.35;80.26;98444.91;1720229;81;21031;-72
2022/09/26 06:54:38;;;;;;;9.63;8.73;;;;;;;15.40;80.09;98447.72;1718948;81;21708;-72
2022/09/26 06:57:04;;;;;;;9.43;8.65;;;;;;;15.44;79.93;98442.20;1689616;82;20870;-71
2022/09/26 06:59:32;;;;;;;7.47;6.87;;;;;;;15.51;79.82;98447.00;1690158;82;20902;-74
2022/09/26 07:02:03;;;;;;;5.42;5.00;;;;;;;15.59;79.69;98452.02;1719525;81;21022;-71
2022/09/26 07:04:31;;;;;;;7.00;6.30;;;;;;;15.67;79.41;98451.70;1712851;81;20978;-72
2022/09/26 07:07:06;;;;;;;6.00;5.50;;;;;;;15.76;79.33;98455.72;1721479;81;21165;-71
2022/09/26 07:09:33;;;;;;;4.83;4.42;;;;;;;15.87;79.21;98454.95;1686193;82;20978;-70
2022/09/26 07:12:19;;;;;;;3.45;3.17;;;;;;;16.00;79.03;98450.73;1674337;85;20982;-75
2022/09/26 07:14:46;;;;;;;5.92;5.22;;;;;;;16.15;78.59;98456.17;1673205;85;20999;-72
2022/09/26 07:17:20;;;;;;;3.52;3.12;;;;;;;16.20;77.83;98465.68;1677081;84;20958;-71
2022/09/26 07:19:52;;;;;;;4.70;4.30;;;;;;;16.23;77.18;98466.57;1655112;85;21010;-71
2022/09/26 07:22:20;;;;;;;4.92;4.50;;;;;;;16.25;76.65;98461.27;1670929;85;20937;-70
2022/09/26 07:24:49;;;;;;;3.25;2.90;;;;;;;16.33;76.52;98464.95;1676358;85;20927;-74
2022/09/26 07:27:16;;;;;;;4.87;3.00;;;;;;;16.41;76.30;98460.59;1676561;85;20939;-67
2022/09/26 07:29:46;;;;;;;4.00;3.67;;;;;;;16.50;75.88;98458.39;1676690;85;20935;-67
2022/09/26 07:32:14;;;;;;;3.30;3.08;;;;;;;16.60;75.67;98458.66;1670981;85;22285;-67
2022/09/26 07:34:42;;;;;;;3.75;2.83;;;;;;;16.73;75.23;98452.23;1662916;86;20935;-66
2022/09/26 07:37:11;;;;;;;3.20;2.90;;;;;;;16.94;74.54;98449.77;1667955;85;21453;-66
2022/09/26 07:39:39;;;;;;;3.30;3.00;;;;;;;17.28;74.29;98451.55;1662537;85;20943;-67
2022/09/26 07:42:07;;;;;;;3.20;2.90;;;;;;;17.65;73.21;98454.73;1710095;83;20923;-68
2022/09/26 07:44:35;;;;;;;3.62;3.33;;;;;;;17.88;72.22;98456.53;1708420;83;21151;-71
2022/09/26 07:50:14;;;;;;;5.30;4.53;;;;;;;17.93;70.86;98457.97;1705119;80;21001;-75
2022/09/26 07:52:44;;;;;;;4.70;4.30;;;;;;;17.84;70.43;98458.05;1658909;85;21030;-77
2022/09/26 07:55:27;;;;;;;4.90;4.50;;;;;;;17.70;70.18;98452.70;1694554;83;21052;-79
2022/09/26 07:57:58;;;;;;;4.22;3.83;;;;;;;17.59;70.24;98451.69;1624151;85;21152;-79
2022/09/26 08:00:29;;;;;;;3.77;3.47;;;;;;;17.53;70.64;98451.29;1640118;83;20898;-77
2022/09/26 08:03:02;;;;;;;3.08;2.87;;;;;;;17.52;70.37;98450.16;1690970;83;20922;-77
2022/09/26 08:05:31;;;;;;;3.02;2.83;;;;;;;17.50;70.28;98446.87;1663315;85;21094;-77
2022/09/26 08:07:57;;;;;;;2.83;2.62;;;;;;;17.53;70.09;98438.37;1711605;82;20897;-76
2022/09/26 08:10:43;;;;;;;2.83;2.60;;;;;;;17.82;70.08;98438.66;1710986;83;21787;-74
2022/09/26 08:13:27;;;;;;;3.87;2.90;;;;;;;18.55;69.77;98417.03;1678896;85;21487;-78
2022/09/26 08:16:03;;;;;;;2.65;2.25;;;;;;;19.92;68.07;98408.77;1709298;82;21330;-71
2022/09/26 08:18:32;;;;;;;2.52;2.37;;;;;;;21.32;64.61;98403.54;1712335;82;20962;-73
2022/09/26 08:21:00;;;;;;;2.98;2.50;;;;;;;22.63;61.29;98398.30;1706810;83;21064;-73
2022/09/26 08:23:28;;;;;;;1.80;1.70;;;;;;;23.71;56.71;98390.32;1694266;83;21119;-72
2022/09/26 08:26:05;;;;;;;2.47;1.98;;;;;;;24.72;53.15;98396.30;1684107;84;21125;-74
2022/09/26 08:28:35;;;;;;;3.77;2.05;;;;;;;25.62;49.60;98393.66;1690521;84;20887;-74
2022/09/26 08:31:03;;;;;;;1.70;1.60;;;;;;;27.17;44.77;98388.60;1738376;81;21001;-74
2022/09/26 08:33:34;;;;;;;2.85;2.22;;;;;;;27.17;44.77;98388.60;1747087;80;20890;-74
2022/09/26 08:36:07;;;;;;;2.20;2.00;;;;;;;27.63;42.33;98387.13;1748039;81;21235;-75
2022/09/26 08:38:37;;;;;;;1.77;1.67;;;;;;;27.36;41.53;98387.39;1746899;81;20842;-75
2022/09/26 08:41:38;;;;;;;1.72;1.62;;;;;;;26.83;41.66;98385.72;1748620;81;20922;-75
2022/09/26 08:44:46;;;;;;;2.35;2.15;;;;;;;25.99;42.57;98390.95;1738642;82;21538;-75
2022/09/26 08:47:48;;;;;;;2.00;1.90;;;;;;;25.09;43.14;98389.67;1730007;80;20934;-75
2022/09/26 08:50:49;;;;;;;1.90;1.80;;;;;;;24.75;44.25;98382.68;1747220;80;21208;-75
2022/09/26 08:53:21;;;;;;;1.80;1.70;;;;;;;25.04;44.45;98382.12;1750942;80;20974;-75
2022/09/26 08:55:50;;;;;;;3.15;2.10;;;;;;;25.65;43.56;98376.74;1742078;80;21006;-74
2022/09/26 08:58:27;;;;;;;3.27;2.85;;;;;;;25.84;42.47;98383.56;1744036;81;20985;-74
2022/09/26 09:00:57;;;;;;;5.15;3.62;;;;;;;25.66;42.30;98381.88;1745905;81;20938;-73
2022/09/26 09:03:32;;;;;;;6.92;3.75;;;;;;;25.73;42.36;98376.87;1736529;81;21222;-73
2022/09/26 09:06:04;;;;;;;4.72;3.55;;;;;;;25.74;42.56;98377.14;1753294;81;21005;-75
2022/09/26 09:08:46;;;;;;;4.30;3.08;;;;;;;25.75;42.79;98380.13;1749139;80;20986;-75
2022/09/26 09:11:40;;;;;;;3.90;3.52;;;;;;;25.87;42.62;98384.30;1733099;81;21397;-73
2022/09/26 09:14:48;;;;;;;3.00;2.72;;;;;;;25.71;42.08;98381.81;1750964;80;20855;-74
2022/09/26 09:18:21;;;;;;;3.95;3.65;;;;;;;25.28;42.77;98385.64;1748147;80;21250;-74
2022/09/26 09:21:25;;;;;;;3.80;2.75;;;;;;;24.82;42.89;98385.34;1726403;81;20930;-75
2022/09/26 09:24:42;;;;;;;3.85;3.08;;;;;;;24.08;43.82;98376.75;1752511;80;20982;-74
2022/09/26 09:27:34;;;;;;;3.90;2.30;;;;;;;23.96;44.22;98373.02;1745335;81;21424;-75
2022/09/26 09:30:36;;;;;;;2.60;2.17;;;;;;;24.05;44.14;98374.05;1753124;81;20934;-75
2022/09/26 09:33:21;;;;;;;2.35;2.15;;;;;;;24.06;43.85;98381.12;1746585;81;21104;-74
2022/09/26 09:36:12;;;;;;;4.30;2.85;;;;;;;23.62;43.91;98384.41;1714546;81;20893;-75
2022/09/26 09:38:46;;;;;;;3.10;2.72;;;;;;;23.08;44.71;98381.63;1750794;80;20898;-75
2022/09/26 09:41:50;;;;;;;3.27;2.95;;;;;;;22.63;45.83;98385.31;1751918;81;21032;-75
2022/09/26 09:44:28;;;;;;;3.50;3.17;;;;;;;22.36;46.49;98389.64;1742781;80;20930;-75
2022/09/26 09:46:55;;;;;;;4.33;3.90;;;;;;;22.17;46.60;98389.09;1741617;81;22049;-74
2022/09/26 09:49:23;;;;;;;4.97;3.92;;;;;;;22.08;47.25;98384.78;1748090;81;20891;-73
2022/09/26 09:52:15;;;;;;;4.58;3.55;;;;;;;22.03;47.76;98385.56;1752017;81;20985;-74
2022/09/26 09:55:25;;;;;;;5.35;3.52;;;;;;;21.98;48.35;98379.33;1743057;81;20899;-74
2022/09/26 09:58:22;;;;;;;6.85;3.42;;;;;;;21.97;48.85;98378.55;1750955;80;20946;-74
2022/09/26 10:01:08;;;;;;;3.85;2.95;;;;;;;22.07;49.03;98377.72;1745458;80;21247;-74
2022/09/26 10:04:06;;;;;;;4.08;3.27;;;;;;;22.18;48.92;98376.65;1713171;82;20983;-76
2022/09/26 10:06:34;;;;;;;4.47;3.50;;;;;;;22.23;48.66;98380.70;1750617;80;21018;-74
2022/09/26 10:09:15;;;;;;;2.90;2.70;;;;;;;22.31;48.73;98373.93;1750797;80;20993;-75
2022/09/26 10:12:03;;;;;;;3.00;2.80;;;;;;;22.33;48.38;98373.11;1742494;81;21467;-75
2022/09/26 10:14:55;;;;;;;3.02;2.75;;;;;;;22.50;48.26;98366.88;1708139;82;21124;-75
2022/09/26 10:17:40;;;;;;;2.83;2.60;;;;;;;22.64;48.52;98366.59;1748591;82;21005;-75
2022/09/26 10:20:45;;;;;;;6.05;3.05;;;;;;;22.74;47.84;98358.42;1740541;80;21009;-74
2022/09/26 10:23:23;;;;;;;3.60;3.30;;;;;;;22.68;47.70;98361.69;1750484;80;20923;-74
2022/09/26 10:25:52;;;;;;;5.30;3.00;;;;;;;22.61;47.65;98360.33;1730682;82;21061;-74
2022/09/26 10:28:36;;;;;;;3.00;2.70;;;;;;;22.40;47.04;98354.67;1738036;80;21232;-74
2022/09/26 10:31:09;;;;;;;3.00;2.70;;;;;;;22.27;47.26;98355.22;1739968;80;20937;-76
2022/09/26 10:33:42;;;;;;;2.70;2.50;;;;;;;22.32;47.29;98348.44;1748986;81;21426;-75
2022/09/26 10:36:22;;;;;;;3.00;2.80;;;;;;;22.36;47.18;98344.94;1726359;82;21001;-75
2022/09/26 10:41:45;;;;;;;4.25;3.20;;;;;;;22.14;47.11;98341.16;1750739;82;21151;-75
2022/09/26 10:44:21;;;;;;;3.08;2.87;;;;;;;22.07;47.15;98334.39;1750167;82;21448;-74
2022/09/26 10:46:56;;;;;;;3.40;3.10;;;;;;;22.06;47.41;98326.81;1717052;81;20899;-75
2022/09/26 10:49:50;;;;;;;3.47;3.17;;;;;;;22.11;47.27;98329.52;1702406;82;21488;-75
2022/09/26 10:52:33;;;;;;;;;;;;;;;22.19;47.52;98323.30;1751913;82;21549;-75
2022/09/26 10:55:32;;;;;;;6.25;3.95;;;;;;;22.23;47.50;98323.01;1750724;82;21146;-74
2022/09/26 10:58:04;;;;;;;7.78;4.12;;;;;;;22.24;47.41;98317.88;1750830;80;21369;-75
2022/09/26 11:00:45;;;;;;;4.72;3.80;;;;;;;22.21;47.36;98311.11;1740950;82;20995;-77
2022/09/26 11:03:24;;;;;;;4.85;3.90;;;;;;;22.29;46.76;98303.75;1739552;80;21061;-76
2022/09/26 11:06:32;;;;;;;3.58;3.27;;;;;;;22.40;46.65;98299.94;1741389;82;21009;-74
2022/09/26 11:09:04;;;;;;;4.97;3.45;;;;;;;22.53;46.35;98303.44;1714173;80;21518;-74
2022/09/26 11:11:50;;;;;;;4.45;3.25;;;;;;;22.62;46.14;98292.84;1750375;80;20878;-78
2022/09/26 11:14:24;;;;;;;4.80;3.87;;;;;;;22.63;45.60;98285.81;1750754;80;20982;-75
2022/09/26 11:16:54;;;;;;;3.85;3.55;;;;;;;22.63;45.56;98283.67;1745501;80;20954;-76
2022/09/26 11:19:44;;;;;;;4.78;3.83;;;;;;;22.62;45.48;98278.79;1750730;82;21052;-74
2022/09/26 11:22:25;;;;;;;4.67;4.17;;;;;;;22.60;45.21;98282.27;1750071;81;21467;-74
2022/09/26 11:25:11;;;;;;;7.58;4.20;;;;;;;22.54;44.92;98284.74;1749892;81;20989;-74
2022/09/26 11:27:51;;;;;;;4.37;3.60;;;;;;;22.37;45.35;98280.73;1750301;80;20927;-75
2022/09/26 11:30:20;;;;;;;3.80;3.42;;;;;;;22.30;45.48;98279.65;1744398;80;21028;-74
2022/09/26 11:32:59;;;;;;;3.70;3.40;;;;;;;22.25;45.18;98281.02;1746844;82;20988;-74
2022/09/26 11:36:01;;;;;;;4.05;3.00;;;;;;;22.13;45.18;98274.52;1747246;80;21176;-74
2022/09/26 11:38:47;;;;;;;4.78;3.12;;;;;;;22.06;44.85;98279.42;1750801;80;20843;-74
2022/09/26 11:41:36;;;;;;;;;;;;;;;21.94;44.67;98285.67;1753437;82;21000;-75
2022/09/26 11:44:39;;;;;;;3.02;2.83;;;;;;;21.78;44.54;98288.61;1726358;81;20162;-75
2022/09/26 11:47:45;;;;;;;5.17;3.20;;;;;;;21.52;45.07;98286.44;1748242;82;20871;-75
2022/09/26 11:50:52;;;;;;;3.22;2.92;;;;;;;21.24;45.84;98287.75;1750850;80;21144;-74
2022/09/26 11:54:05;;;;;;;2.85;2.65;;;;;;;20.76;46.50;98291.61;1741434;80;20946;-74
2022/09/26 11:56:56;;;;;;;4.30;2.55;;;;;;;20.76;46.50;98291.61;1751789;80;20994;-74
2022/09/26 11:59:51;;;;;;;3.58;3.27;;;;;;;20.49;47.78;98292.28;1747047;80;20998;-74
2022/09/26 12:02:56;;;;;;;3.65;2.75;;;;;;;20.33;48.22;98290.59;1737290;80;20883;-74
2022/09/26 12:05:44;;;;;;;5.75;3.20;;;;;;;20.16;48.81;98286.67;1743935;81;21147;-75
2022/09/26 12:08:35;;;;;;;3.58;3.10;;;;;;;20.10;49.57;98289.61;1753054;81;20894;-75
2022/09/26 12:11:26;;;;;;;7.35;2.95;;;;;;;20.00;50.18;98288.98;1742230;80;20994;-73
2022/09/26 12:14:16;;;;;;;3.00;2.80;;;;;;;19.90;50.83;98289.44;1749893;80;21133;-74
2022/09/26 12:17:10;;;;;;;2.92;2.72;;;;;;;19.79;51.23;98290.45;1753402;81;21009;-74
2022/09/26 12:19:49;;;;;;;3.62;2.65;;;;;;;19.68;51.40;98282.81;1753245;81;21149;-74
2022/09/26 12:22:34;;;;;;;3.92;3.52;;;;;;;19.61;51.78;98292.45;1746402;81;20989;-74
2022/09/26 12:25:06;;;;;;;3.15;2.95;;;;;;;19.59;51.94;98292.42;1747684;81;20978;-75
2022/09/26 12:27:38;;;;;;;3.40;2.75;;;;;;;19.52;52.30;98287.26;1743930;80;20989;-76
2022/09/26 12:30:15;;;;;;;3.17;2.80;;;;;;;19.50;52.62;98279.14;1752272;81;20922;-76